createdAt,value
2017-09-20T00:01:31.489Z,11.43
2017-09-20T00:03:58.606Z,10.13
2017-09-20T00:06:25.215Z,13.40
2017-09-20T00:08:51.593Z,11.25
2017-09-20T00:11:17.939Z,8.57
2017-09-20T00:13:45.018Z,9.43
2017-09-20T00:16:11.361Z,10.70
2017-09-20T00:18:37.708Z,14.70
2017-09-20T00:21:04.098Z,13.18
2017-09-20T00:23:31.419Z,11.32
2017-09-20T00:25:58.496Z,12.40
2017-09-20T00:28:24.857Z,11.57
2017-09-20T00:30:51.221Z,11.68
2017-09-20T00:33:17.570Z,11.15
2017-09-20T00:35:44.684Z,14.73
2017-09-20T00:38:11.063Z,11.27
2017-09-20T00:40:37.463Z,11.65
2017-09-20T00:43:04.588Z,12.43
2017-09-20T00:45:31.008Z,11.98
2017-09-20T00:47:57.417Z,13.20
2017-09-20T00:50:24.080Z,10.75
2017-09-20T00:52:50.450Z,13.32
2017-09-20T00:55:17.574Z,10.68
2017-09-20T00:57:43.992Z,13.27
2017-09-20T01:00:10.381Z,16.30
2017-09-20T01:02:36.777Z,10.63
2017-09-20T01:05:03.114Z,10.32
2017-09-20T01:07:30.230Z,10.25
2017-09-20T01:09:56.660Z,11.68
2017-09-20T01:12:23.515Z,11.93
2017-09-20T01:14:49.900Z,14.23
2017-09-20T01:17:16.260Z,13.10
2017-09-20T01:19:42.648Z,10.55
2017-09-20T01:22:21.259Z,11.95
2017-09-20T01:24:47.668Z,15.95
2017-09-20T01:27:14.806Z,14.75
2017-09-20T01:29:41.982Z,13.70
2017-09-20T01:32:08.314Z,16.67
2017-09-20T01:34:34.717Z,15.55
2017-09-20T01:37:01.073Z,14.38
2017-09-20T01:39:27.775Z,18.05
2017-09-20T01:41:54.139Z,14.57
2017-09-20T01:44:20.487Z,17.50
2017-09-20T01:46:47.587Z,17.05
2017-09-20T01:49:14.024Z,13.43
2017-09-20T01:51:41.120Z,18.23
2017-09-20T01:54:07.464Z,18.87
2017-09-20T01:56:33.847Z,15.23
2017-09-20T01:59:00.180Z,15.95
2017-09-20T02:01:26.841Z,18.00
2017-09-20T02:03:53.177Z,15.73
2017-09-20T02:06:19.556Z,17.60
2017-09-20T02:08:46.683Z,19.65
2017-09-20T02:11:13.063Z,15.23
2017-09-20T02:13:39.468Z,19.08
2017-09-20T02:16:06.546Z,17.08
2017-09-20T02:18:32.972Z,22.37
2017-09-20T02:20:59.330Z,18.17
2017-09-20T02:23:29.592Z,17.65
2017-09-20T02:25:56.894Z,23.67
2017-09-20T02:28:23.587Z,19.60
2017-09-20T02:30:50.715Z,15.85
2017-09-20T02:33:17.093Z,21.15
2017-09-20T02:35:43.497Z,19.27
2017-09-20T02:38:10.621Z,18.70
2017-09-20T02:40:37.039Z,26.17
2017-09-20T02:43:03.410Z,17.90
2017-09-20T02:45:29.856Z,20.12
2017-09-20T02:47:56.207Z,19.12
2017-09-20T02:50:22.889Z,22.55
2017-09-20T02:52:50.044Z,20.45
2017-09-20T02:55:17.184Z,20.55
2017-09-20T02:57:44.321Z,25.50
2017-09-20T03:00:10.695Z,17.00
2017-09-20T03:02:37.093Z,22.13
2017-09-20T03:05:03.424Z,23.25
2017-09-20T03:07:30.079Z,21.37
2017-09-20T03:09:57.148Z,27.15
2017-09-20T03:12:23.499Z,22.55
2017-09-20T03:14:49.900Z,30.90
2017-09-20T03:17:16.230Z,34.53
2017-09-20T03:19:42.658Z,28.15
2017-09-20T03:22:09.000Z,29.15
2017-09-20T03:24:35.385Z,34.70
2017-09-20T03:27:01.742Z,34.45
2017-09-20T03:29:28.536Z,32.38
2017-09-20T03:31:54.862Z,33.80
2017-09-20T03:34:21.211Z,37.40
2017-09-20T03:36:48.326Z,36.88
2017-09-20T03:39:14.738Z,37.03
2017-09-20T03:41:41.110Z,35.30
2017-09-20T03:44:08.243Z,41.80
2017-09-20T03:46:34.891Z,37.72
2017-09-20T03:49:01.242Z,34.60
2017-09-20T03:51:28.328Z,35.63
2017-09-20T03:53:54.706Z,40.08
2017-09-20T03:56:21.058Z,31.80
2017-09-20T03:58:47.414Z,40.10
2017-09-20T04:01:13.818Z,33.42
2017-09-20T04:03:40.909Z,33.58
2017-09-20T04:06:07.252Z,33.55
2017-09-20T04:08:34.106Z,33.25
2017-09-20T04:11:00.458Z,40.10
2017-09-20T04:13:27.545Z,34.50
2017-09-20T04:15:53.937Z,35.55
2017-09-20T04:18:20.328Z,38.80
2017-09-20T04:20:46.703Z,35.42
2017-09-20T04:23:13.070Z,41.25
2017-09-20T04:25:39.430Z,36.15
2017-09-20T04:28:05.911Z,40.90
2017-09-20T04:30:32.338Z,40.90
2017-09-20T04:32:58.702Z,36.72
2017-09-20T04:35:25.082Z,33.67
2017-09-20T04:37:52.222Z,36.72
2017-09-20T04:40:18.599Z,41.92
2017-09-20T04:42:44.973Z,43.83
2017-09-20T04:45:12.080Z,43.85
2017-09-20T04:47:38.846Z,37.55
2017-09-20T04:50:05.233Z,41.92
2017-09-20T04:52:31.576Z,45.53
2017-09-20T04:54:57.937Z,44.75
2017-09-20T04:57:24.331Z,52.55
2017-09-20T04:59:50.693Z,58.67
2017-09-20T05:02:17.077Z,44.90
2017-09-20T05:04:43.433Z,52.05
2017-09-20T05:07:09.806Z,47.38
2017-09-20T05:09:37.234Z,51.80
2017-09-20T05:12:03.593Z,48.25
2017-09-20T05:14:29.966Z,50.85
2017-09-20T05:16:56.383Z,50.92
2017-09-20T05:19:22.735Z,48.63
2017-09-20T05:21:49.173Z,46.40
2017-09-20T05:24:15.538Z,50.53
2017-09-20T05:26:42.671Z,50.25
2017-09-20T05:29:09.864Z,55.58
2017-09-20T05:31:36.298Z,47.05
2017-09-20T05:34:02.751Z,54.85
2017-09-20T05:36:29.478Z,50.28
2017-09-20T05:38:55.894Z,49.20
2017-09-20T05:41:22.263Z,47.40
2017-09-20T05:43:50.179Z,46.05
2017-09-20T05:46:16.601Z,45.22
2017-09-20T05:48:43.007Z,44.55
2017-09-20T05:51:10.157Z,39.53
2017-09-20T05:53:37.304Z,45.53
2017-09-20T05:56:04.453Z,47.90
2017-09-20T05:58:31.244Z,49.17
2017-09-20T06:00:57.669Z,44.72
2017-09-20T06:03:24.044Z,46.92
2017-09-20T06:05:50.444Z,49.17
2017-09-20T06:08:16.852Z,51.45
2017-09-20T06:10:43.252Z,49.35
2017-09-20T06:13:10.351Z,47.40
2017-09-20T06:15:36.744Z,49.45
2017-09-20T06:18:03.114Z,45.35
2017-09-20T06:20:29.496Z,46.50
2017-09-20T06:22:56.740Z,50.25
2017-09-20T06:25:24.165Z,53.60
2017-09-20T06:27:50.622Z,52.88
2017-09-20T06:30:17.829Z,55.12
2017-09-20T06:32:44.353Z,50.63
2017-09-20T06:35:11.547Z,56.80
2017-09-20T06:37:38.073Z,45.97
2017-09-20T06:40:05.201Z,52.38
2017-09-20T06:42:31.677Z,52.35
2017-09-20T06:44:58.067Z,51.15
2017-09-20T06:47:24.467Z,52.17
2017-09-20T06:49:50.906Z,55.55
2017-09-20T06:52:18.674Z,54.55
2017-09-20T06:54:45.102Z,49.47
2017-09-20T06:57:11.495Z,53.53
2017-09-20T06:59:38.645Z,53.07
2017-09-20T07:02:05.025Z,48.67
2017-09-20T07:04:31.395Z,54.97
2017-09-20T07:06:58.516Z,59.95
2017-09-20T07:09:26.703Z,49.38
2017-09-20T07:11:53.215Z,45.10
2017-09-20T07:14:19.918Z,51.45
2017-09-20T07:16:46.295Z,48.03
2017-09-20T07:19:12.623Z,45.23
2017-09-20T07:21:39.000Z,48.93
2017-09-20T07:24:05.405Z,42.38
2017-09-20T07:26:32.528Z,57.83
2017-09-20T07:28:58.886Z,44.97
2017-09-20T07:31:26.008Z,47.67
2017-09-20T07:33:52.369Z,47.57
2017-09-20T07:36:18.740Z,50.37
2017-09-20T07:38:45.136Z,48.77
2017-09-20T07:41:11.786Z,44.13
2017-09-20T07:43:38.142Z,43.83
2017-09-20T07:46:04.547Z,45.77
2017-09-20T07:48:30.985Z,44.20
2017-09-20T07:50:57.361Z,43.90
2017-09-20T07:53:23.726Z,43.27
2017-09-20T07:55:50.137Z,42.73
2017-09-20T07:58:16.501Z,39.33
2017-09-20T08:00:42.835Z,39.53
2017-09-20T08:03:09.469Z,45.03
2017-09-20T08:05:35.838Z,42.07
2017-09-20T08:08:02.185Z,43.80
2017-09-20T08:10:28.565Z,40.00
2017-09-20T08:12:54.891Z,36.73
2017-09-20T08:15:21.316Z,34.97
2017-09-20T08:17:47.740Z,42.00
2017-09-20T08:20:14.199Z,38.37
2017-09-20T08:22:40.581Z,32.10
2017-09-20T08:25:07.282Z,36.97
2017-09-20T08:27:33.738Z,35.40
2017-09-20T08:30:00.142Z,30.57
2017-09-20T08:32:26.540Z,39.83
2017-09-20T08:34:52.882Z,39.13
2017-09-20T08:37:19.994Z,36.07
2017-09-20T08:39:47.129Z,34.07
2017-09-20T08:42:13.547Z,34.67
2017-09-20T08:44:39.924Z,35.13
2017-09-20T08:47:06.620Z,36.13
2017-09-20T08:49:32.996Z,35.33
2017-09-20T08:51:59.356Z,40.57
2017-09-20T08:54:25.769Z,32.57
2017-09-20T08:56:52.127Z,34.87
2017-09-20T08:59:18.878Z,40.10
2017-09-20T09:01:45.992Z,39.30
2017-09-20T09:04:12.403Z,41.43
2017-09-20T09:06:38.827Z,36.17
2017-09-20T09:09:05.191Z,34.70
2017-09-20T09:11:31.848Z,35.47
2017-09-20T09:13:58.254Z,36.53
2017-09-20T09:16:24.621Z,44.37
2017-09-20T09:18:51.751Z,41.37
2017-09-20T09:21:18.127Z,40.50
2017-09-20T09:23:44.521Z,40.93
2017-09-20T09:26:10.858Z,39.90
2017-09-20T09:28:37.211Z,39.40
2017-09-20T09:31:03.567Z,45.77
2017-09-20T09:33:29.910Z,39.20
2017-09-20T09:35:56.328Z,37.80
2017-09-20T09:38:22.707Z,33.33
2017-09-20T09:40:50.143Z,37.30
2017-09-20T09:43:16.519Z,34.20
2017-09-20T09:45:42.917Z,33.33
2017-09-20T09:48:10.085Z,38.23
2017-09-20T09:50:36.461Z,30.50
2017-09-20T09:53:03.119Z,32.60
2017-09-20T09:55:29.485Z,34.23
2017-09-20T09:57:55.853Z,32.63
2017-09-20T10:00:22.168Z,26.60
2017-09-20T10:02:48.564Z,34.93
2017-09-20T10:05:15.668Z,27.90
2017-09-20T10:07:42.094Z,35.83
2017-09-20T10:10:08.751Z,31.60
2017-09-20T10:12:35.089Z,33.40
2017-09-20T10:15:01.454Z,33.30
2017-09-20T10:17:27.868Z,33.87
2017-09-20T10:19:54.256Z,38.03
2017-09-20T10:22:20.620Z,35.30
2017-09-20T10:24:47.745Z,34.17
2017-09-20T10:27:14.488Z,37.77
2017-09-20T10:29:40.835Z,30.40
2017-09-20T10:32:07.927Z,30.80
2017-09-20T10:34:34.286Z,31.77
2017-09-20T10:37:00.635Z,37.60
2017-09-20T10:39:27.750Z,36.30
2017-09-20T10:41:54.148Z,33.50
2017-09-20T10:44:20.512Z,41.53
2017-09-20T10:46:46.939Z,28.57
2017-09-20T10:49:13.707Z,31.10
2017-09-20T10:51:40.055Z,30.00
2017-09-20T10:54:06.394Z,34.77
2017-09-20T10:56:32.772Z,39.83
2017-09-20T10:58:59.143Z,31.63
2017-09-20T11:01:26.279Z,36.90
2017-09-20T11:03:53.408Z,34.60
2017-09-20T11:06:19.776Z,31.93
2017-09-20T11:08:46.131Z,32.23
2017-09-20T11:11:12.820Z,35.57
2017-09-20T11:13:39.167Z,35.10
2017-09-20T11:16:05.526Z,32.97
2017-09-20T11:18:31.887Z,31.77
2017-09-20T11:20:58.273Z,34.87
2017-09-20T11:23:24.666Z,32.27
2017-09-20T11:25:51.080Z,29.63
2017-09-20T11:28:17.480Z,31.77
2017-09-20T11:30:43.809Z,31.83
2017-09-20T11:33:10.175Z,34.70
2017-09-20T11:35:36.539Z,30.90
2017-09-20T11:38:03.191Z,34.40
2017-09-20T11:40:29.524Z,29.23
2017-09-20T11:42:55.910Z,28.13
2017-09-20T11:45:22.306Z,32.40
2017-09-20T11:47:48.683Z,35.83
2017-09-20T11:50:15.773Z,36.70
2017-09-20T11:52:42.103Z,29.57
2017-09-20T11:55:08.780Z,29.43
2017-09-20T11:57:35.141Z,33.47
2017-09-20T12:00:01.518Z,28.33
2017-09-20T12:02:27.892Z,27.90
2017-09-20T12:04:54.278Z,29.20
2017-09-20T12:07:20.679Z,32.10
2017-09-20T12:09:47.044Z,31.40
2017-09-20T12:12:13.427Z,34.37
2017-09-20T12:14:39.794Z,37.53
2017-09-20T12:17:06.438Z,36.07
2017-09-20T12:19:32.791Z,29.07
2017-09-20T12:21:59.879Z,31.37
2017-09-20T12:24:26.315Z,26.40
2017-09-20T12:26:52.663Z,19.53
2017-09-20T12:29:19.068Z,23.30
2017-09-20T12:31:45.446Z,19.50
2017-09-20T12:34:12.113Z,21.50
2017-09-20T12:36:39.213Z,17.40
2017-09-20T12:39:05.571Z,16.90
2017-09-20T12:41:32.718Z,19.63
2017-09-20T12:43:59.815Z,17.50
2017-09-20T12:46:26.186Z,20.30
2017-09-20T12:48:52.653Z,20.73
2017-09-20T12:51:19.014Z,17.70
2017-09-20T12:53:45.415Z,15.83
2017-09-20T12:56:12.053Z,15.37
2017-09-20T12:58:38.454Z,10.30
2017-09-20T13:01:04.794Z,17.33
2017-09-20T13:03:31.172Z,12.90
2017-09-20T13:05:57.540Z,10.60
2017-09-20T13:08:23.897Z,7.87
2017-09-20T13:10:50.250Z,10.17
2017-09-20T13:13:16.626Z,6.87
2017-09-20T13:15:42.974Z,5.30
2017-09-20T13:18:10.086Z,6.87
2017-09-20T13:20:36.437Z,8.17
2017-09-20T13:23:02.817Z,6.17
2017-09-20T13:25:29.166Z,5.30
2017-09-20T13:27:55.528Z,5.13
2017-09-20T13:30:22.263Z,5.93
2017-09-20T13:32:48.601Z,10.03
2017-09-20T13:35:14.946Z,6.67
2017-09-20T13:37:41.363Z,7.63
2017-09-20T13:40:08.468Z,8.83
2017-09-20T13:42:34.861Z,8.80
2017-09-20T13:45:01.258Z,11.00
2017-09-20T13:47:27.711Z,9.53
2017-09-20T13:49:54.081Z,10.50
2017-09-20T13:52:20.766Z,12.63
2017-09-20T13:54:47.165Z,11.47
2017-09-20T13:57:13.607Z,10.13
2017-09-20T13:59:40.012Z,8.27
2017-09-20T14:02:06.373Z,7.50
2017-09-20T14:04:32.772Z,7.27
2017-09-20T14:06:59.115Z,10.30
2017-09-20T14:09:26.046Z,11.17
2017-09-20T14:11:52.414Z,9.83
2017-09-20T14:14:18.758Z,14.97
2017-09-20T14:16:45.157Z,12.93
2017-09-20T14:19:11.519Z,10.13
2017-09-20T14:21:38.625Z,10.10
2017-09-20T14:24:05.021Z,14.10
2017-09-20T14:26:31.719Z,13.80
2017-09-20T14:28:58.104Z,14.93
2017-09-20T14:31:24.455Z,14.63
2017-09-20T14:33:50.812Z,11.57
2017-09-20T14:36:17.895Z,19.93
2017-09-20T14:38:45.061Z,15.73
2017-09-20T14:41:11.401Z,19.33
2017-09-20T14:43:37.772Z,13.00
2017-09-20T14:46:04.893Z,14.90
2017-09-20T14:48:31.747Z,12.93
2017-09-20T14:50:58.164Z,15.13
2017-09-20T14:53:24.551Z,17.07
2017-09-20T14:55:50.970Z,15.73
2017-09-20T14:58:17.365Z,22.03
2017-09-20T15:00:43.751Z,20.30
2017-09-20T15:03:10.127Z,18.93
2017-09-20T15:05:36.659Z,16.83
2017-09-20T15:08:03.010Z,14.83
2017-09-20T15:10:29.660Z,14.70
2017-09-20T15:12:56.034Z,17.50
2017-09-20T15:15:22.380Z,22.87
2017-09-20T15:17:48.750Z,16.30
2017-09-20T15:20:15.097Z,16.33
2017-09-20T15:22:41.469Z,18.87
2017-09-20T15:25:07.847Z,15.17
2017-09-20T15:27:34.255Z,20.03
2017-09-20T15:30:01.370Z,19.97
2017-09-20T15:32:28.778Z,15.87
2017-09-20T15:34:55.178Z,20.40
2017-09-20T15:37:22.364Z,20.70
2017-09-20T15:39:49.099Z,17.20
2017-09-20T15:42:15.778Z,19.10
2017-09-20T15:44:42.297Z,29.10
2017-09-20T15:47:08.696Z,24.80
2017-09-20T15:49:35.172Z,17.33
2017-09-20T15:52:01.527Z,24.90
2017-09-20T15:54:28.966Z,27.10
2017-09-20T15:56:55.365Z,24.47
2017-09-20T15:59:21.733Z,21.40
2017-09-20T16:01:48.159Z,24.77
2017-09-20T16:04:15.283Z,28.90
2017-09-20T16:06:41.671Z,24.80
2017-09-20T16:09:08.035Z,23.57
2017-09-20T16:11:34.834Z,28.57
2017-09-20T16:14:01.212Z,27.07
2017-09-20T16:16:27.598Z,21.40
2017-09-20T16:18:53.996Z,21.10
2017-09-20T16:21:20.393Z,17.27
2017-09-20T16:23:46.829Z,20.93
2017-09-20T16:26:13.242Z,35.03
2017-09-20T16:28:39.931Z,17.17
2017-09-20T16:31:06.350Z,19.77
2017-09-20T16:33:32.758Z,15.43
2017-09-20T16:35:59.912Z,16.87
2017-09-20T16:38:26.302Z,17.97
2017-09-20T16:40:52.766Z,16.50
2017-09-20T16:43:19.174Z,26.87
2017-09-20T16:45:45.546Z,21.33
2017-09-20T16:48:11.935Z,19.10
2017-09-20T16:50:38.621Z,17.93
2017-09-20T16:53:05.036Z,17.00
2017-09-20T16:55:31.445Z,18.17
2017-09-20T16:57:57.869Z,18.57
2017-09-20T17:00:24.319Z,21.30
2017-09-20T17:02:50.693Z,18.07
2017-09-20T17:05:17.798Z,20.77
2017-09-20T17:07:44.198Z,20.27
2017-09-20T17:10:10.623Z,15.90
2017-09-20T17:12:37.328Z,23.23
2017-09-20T17:15:03.711Z,23.57
2017-09-20T17:17:30.084Z,20.33
2017-09-20T17:19:56.570Z,30.30
2017-09-20T17:22:22.972Z,20.17
2017-09-20T17:24:50.129Z,20.10
2017-09-20T17:27:17.246Z,19.87
2017-09-20T17:29:43.635Z,19.77
2017-09-20T17:32:09.991Z,19.17
2017-09-20T17:34:36.397Z,19.03
2017-09-20T17:37:02.764Z,18.10
2017-09-20T17:39:29.519Z,24.30
2017-09-20T17:41:56.616Z,26.17
2017-09-20T17:44:23.073Z,20.97
2017-09-20T17:46:49.529Z,22.43
2017-09-20T17:49:16.656Z,20.23
2017-09-20T17:51:43.036Z,19.93
2017-09-20T17:54:09.483Z,17.92
2017-09-20T17:56:35.875Z,20.00
2017-09-20T17:59:02.317Z,19.23
2017-09-20T18:01:28.765Z,18.37
2017-09-20T18:03:55.189Z,20.92
2017-09-20T18:06:21.626Z,18.25
2017-09-20T18:08:48.029Z,20.85
2017-09-20T18:11:15.154Z,22.10
2017-09-20T18:13:41.851Z,17.95
2017-09-20T18:16:08.288Z,19.87
2017-09-20T18:18:34.755Z,26.10
2017-09-20T18:21:01.384Z,20.55
2017-09-20T18:23:28.590Z,31.75
2017-09-20T18:25:55.054Z,25.00
2017-09-20T18:28:22.241Z,20.48
2017-09-20T18:30:49.429Z,16.67
2017-09-20T18:33:15.905Z,22.35
2017-09-20T18:35:43.484Z,19.13
2017-09-20T18:38:10.748Z,25.37
2017-09-20T18:40:37.208Z,20.15
2017-09-20T18:43:03.645Z,19.73
2017-09-20T18:45:30.092Z,19.83
2017-09-20T18:47:56.516Z,23.45
2017-09-20T18:50:22.981Z,19.75
2017-09-20T18:52:49.473Z,20.27
2017-09-20T18:55:15.922Z,19.40
2017-09-20T18:57:42.416Z,20.70
2017-09-20T19:00:09.244Z,20.70
2017-09-20T19:02:35.772Z,20.75
2017-09-20T19:05:02.296Z,18.60
2017-09-20T19:07:28.764Z,19.48
2017-09-20T19:09:55.242Z,22.95
2017-09-20T19:12:22.499Z,22.62
2017-09-20T19:14:49.809Z,18.30
2017-09-20T19:17:16.277Z,21.02
2017-09-20T19:19:43.540Z,19.08
2017-09-20T19:22:11.106Z,21.55
2017-09-20T19:24:37.578Z,20.17
2017-09-20T19:27:04.102Z,18.17
2017-09-20T19:29:30.568Z,17.58
2017-09-20T19:31:57.032Z,17.85
2017-09-20T19:34:23.536Z,18.92
2017-09-20T19:36:49.976Z,21.87
2017-09-20T19:39:16.426Z,20.37
2017-09-20T19:41:43.661Z,18.17
2017-09-20T19:44:10.882Z,20.25
2017-09-20T19:46:37.336Z,22.87
2017-09-20T19:49:04.117Z,23.30
2017-09-20T19:51:30.638Z,20.88
2017-09-20T19:53:57.140Z,19.08
2017-09-20T19:56:23.611Z,17.37
2017-09-20T19:58:50.113Z,20.88
2017-09-20T20:01:17.363Z,19.62
2017-09-20T20:03:44.568Z,18.67
2017-09-20T20:06:11.029Z,20.48
2017-09-20T20:08:37.502Z,20.05
2017-09-20T20:11:04.103Z,17.70
2017-09-20T20:13:31.308Z,20.25
2017-09-20T20:15:57.701Z,18.65
2017-09-20T20:18:24.180Z,17.73
2017-09-20T20:20:50.585Z,23.70
2017-09-20T20:23:17.075Z,17.15
2017-09-20T20:25:43.490Z,18.40
2017-09-20T20:28:09.888Z,17.95
2017-09-20T20:30:36.363Z,17.15
2017-09-20T20:33:03.133Z,17.20
2017-09-20T20:35:30.294Z,16.23
2017-09-20T20:37:56.717Z,16.73
2017-09-20T20:40:23.893Z,12.30
2017-09-20T20:42:50.304Z,13.23
2017-09-20T20:45:16.725Z,18.98
2017-09-20T20:47:43.867Z,14.93
2017-09-20T20:50:10.984Z,14.00
2017-09-20T20:52:37.372Z,13.93
2017-09-20T20:55:03.779Z,15.32
2017-09-20T20:57:30.974Z,12.73
2017-09-20T20:59:57.662Z,12.68
2017-09-20T21:02:24.051Z,13.52
2017-09-20T21:04:50.420Z,12.43
2017-09-20T21:07:17.573Z,14.15
2017-09-20T21:09:43.972Z,13.18
2017-09-20T21:12:10.474Z,13.15
2017-09-20T21:14:36.887Z,16.23
2017-09-20T21:17:03.356Z,12.80
2017-09-20T21:19:29.763Z,15.98
2017-09-20T21:21:57.977Z,17.45
2017-09-20T21:24:24.331Z,16.77
2017-09-20T21:26:51.440Z,16.98
2017-09-20T21:29:18.857Z,20.95
2017-09-20T21:31:45.235Z,15.18
2017-09-20T21:34:11.638Z,21.37
2017-09-20T21:36:38.415Z,20.88
2017-09-20T21:39:04.794Z,22.73
2017-09-20T21:41:36.958Z,22.55
2017-09-20T21:44:03.738Z,18.35
2017-09-20T21:46:30.145Z,17.52
2017-09-20T21:48:56.529Z,20.40
2017-09-20T21:51:23.502Z,20.30
2017-09-20T21:53:49.915Z,21.80
2017-09-20T21:56:16.312Z,19.45
2017-09-20T21:58:43.784Z,19.17
2017-09-20T22:01:10.347Z,18.10
2017-09-20T22:03:36.715Z,21.40
2017-09-20T22:06:03.264Z,17.02
2017-09-20T22:08:29.640Z,16.27
2017-09-20T22:10:56.323Z,19.27
2017-09-20T22:13:29.861Z,17.87
2017-09-20T22:16:09.571Z,19.80
2017-09-20T22:18:49.287Z,21.23
2017-09-20T22:21:28.356Z,18.77
2017-09-20T22:24:07.593Z,20.45
2017-09-20T22:26:44.352Z,20.60
2017-09-20T22:29:10.736Z,15.75
2017-09-20T22:31:37.150Z,20.67
2017-09-20T22:34:03.552Z,22.27
2017-09-20T22:36:30.635Z,22.20
2017-09-20T22:38:57.009Z,17.05
2017-09-20T22:41:23.369Z,18.08
2017-09-20T22:43:49.740Z,20.85
2017-09-20T22:46:16.126Z,16.58
2017-09-20T22:48:42.849Z,16.92
2017-09-20T22:51:09.251Z,17.45
2017-09-20T22:53:35.638Z,17.65
2017-09-20T22:56:02.744Z,18.58
2017-09-20T22:58:29.179Z,17.87
2017-09-20T23:00:55.606Z,17.27
2017-09-20T23:06:23.024Z,19.15
2017-09-20T23:08:49.394Z,16.60
2017-09-20T23:11:15.766Z,15.65
2017-09-20T23:13:42.133Z,23.02
2017-09-20T23:16:08.537Z,21.65
2017-09-20T23:18:34.903Z,20.00
2017-09-20T23:21:01.574Z,19.92
2017-09-20T23:23:27.975Z,19.40
2017-09-20T23:25:54.303Z,19.87
2017-09-20T23:28:20.751Z,19.65
2017-09-20T23:30:47.103Z,20.55
2017-09-20T23:33:14.241Z,24.77
2017-09-20T23:35:40.619Z,19.73
2017-09-20T23:38:06.991Z,23.80
2017-09-20T23:40:33.343Z,19.50
2017-09-20T23:42:59.761Z,21.12
2017-09-20T23:45:26.129Z,15.80
2017-09-20T23:47:52.832Z,20.00
2017-09-20T23:50:19.170Z,19.92
2017-09-20T23:52:46.247Z,17.42
2017-09-20T23:55:12.642Z,19.58
2017-09-20T23:57:39.035Z,16.73
